createdAt,value
2023-01-03T00:02:07.842Z,25.58
2023-01-03T00:04:34.697Z,22.15
2023-01-03T00:07:04.568Z,23.02
2023-01-03T00:09:31.643Z,21.67
2023-01-03T00:12:17.036Z,26.10
2023-01-03T00:14:44.878Z,26.60
2023-01-03T00:17:12.995Z,30.65
2023-01-03T00:19:44.592Z,33.28
2023-01-03T00:22:12.945Z,33.47
2023-01-03T00:24:39.841Z,31.77
2023-01-03T00:27:06.941Z,29.27
2023-01-03T00:29:34.223Z,26.98
2023-01-03T00:32:01.178Z,30.38
2023-01-03T00:34:28.370Z,27.75
2023-01-03T00:36:55.863Z,27.38
2023-01-03T00:39:23.188Z,28.55
2023-01-03T00:41:50.485Z,27.08
2023-01-03T00:44:18.169Z,26.33
2023-01-03T00:46:45.969Z,27.10
2023-01-03T00:49:12.912Z,28.10
2023-01-03T00:51:41.257Z,27.33
2023-01-03T00:54:09.458Z,27.05
2023-01-03T00:56:39.197Z,28.10
2023-01-03T00:59:07.060Z,27.02
2023-01-03T01:01:47.562Z,25.40
2023-01-03T01:04:22.764Z,26.33
2023-01-03T01:06:56.094Z,23.80
2023-01-03T01:09:25.881Z,25.05
2023-01-03T01:11:53.165Z,24.88
2023-01-03T01:14:23.399Z,25.70
2023-01-03T01:16:57.376Z,25.00
2023-01-03T01:19:27.290Z,24.90
2023-01-03T01:21:54.475Z,24.17
2023-01-03T01:24:21.678Z,22.33
2023-01-03T01:26:48.750Z,21.13
2023-01-03T01:29:17.504Z,19.30
2023-01-03T01:31:46.511Z,21.15
2023-01-03T01:34:14.737Z,21.45
2023-01-03T01:36:43.216Z,24.25
2023-01-03T01:39:17.101Z,23.45
2023-01-03T01:42:03.955Z,24.65
2023-01-03T01:44:42.886Z,21.95
2023-01-03T01:47:24.722Z,25.25
2023-01-03T01:50:13.713Z,22.88
2023-01-03T01:52:48.748Z,21.90
2023-01-03T01:55:20.803Z,24.50
2023-01-03T01:57:48.045Z,23.77
2023-01-03T02:00:15.662Z,23.60
2023-01-03T02:02:44.117Z,23.80
2023-01-03T02:05:12.063Z,23.80
2023-01-03T02:07:39.751Z,24.67
2023-01-03T02:10:07.689Z,24.63
2023-01-03T02:13:05.908Z,23.30
2023-01-03T02:15:58.240Z,21.50
2023-01-03T02:18:47.072Z,22.27
2023-01-03T02:21:34.952Z,22.52
2023-01-03T02:24:20.604Z,22.73
2023-01-03T02:27:30.360Z,22.17
2023-01-03T02:30:15.891Z,22.30
2023-01-03T02:33:09.075Z,19.90
2023-01-03T02:35:47.905Z,18.20
2023-01-03T02:38:37.482Z,19.20
2023-01-03T02:41:18.693Z,18.73
2023-01-03T02:44:17.468Z,18.15
2023-01-03T02:46:54.632Z,19.02
2023-01-03T02:49:53.510Z,16.08
2023-01-03T02:52:25.931Z,18.27
2023-01-03T02:55:03.143Z,17.27
2023-01-03T02:58:04.446Z,19.75
2023-01-03T03:00:35.402Z,21.17
2023-01-03T03:03:09.415Z,21.92
2023-01-03T03:06:17.978Z,22.08
2023-01-03T03:08:46.301Z,21.35
2023-01-03T03:11:32.684Z,23.52
2023-01-03T03:14:22.626Z,20.85
2023-01-03T03:16:51.805Z,22.23
2023-01-03T03:19:50.786Z,20.38
2023-01-03T03:22:54.213Z,21.67
2023-01-03T03:25:36.366Z,21.08
2023-01-03T03:28:29.323Z,20.15
2023-01-03T03:31:02.285Z,20.17
2023-01-03T03:33:38.008Z,18.33
2023-01-03T03:36:12.149Z,20.52
2023-01-03T03:38:45.126Z,20.27
2023-01-03T03:41:41.566Z,23.95
2023-01-03T03:44:38.824Z,23.83
2023-01-03T03:47:19.706Z,24.15
2023-01-03T03:49:51.838Z,24.17
2023-01-03T03:52:25.278Z,21.60
2023-01-03T03:55:02.404Z,24.10
2023-01-03T03:57:37.580Z,24.42
2023-01-03T04:00:15.632Z,23.27
2023-01-03T04:02:47.006Z,24.38
2023-01-03T04:05:18.298Z,21.05
2023-01-03T04:07:45.364Z,24.02
2023-01-03T04:10:13.445Z,24.98
2023-01-03T04:12:40.397Z,23.45
2023-01-03T04:15:07.911Z,23.13
2023-01-03T04:17:34.928Z,23.20
2023-01-03T04:20:04.194Z,23.90
2023-01-03T04:22:30.987Z,23.80
2023-01-03T04:24:58.088Z,23.05
2023-01-03T04:27:25.029Z,22.98
2023-01-03T04:29:51.826Z,22.50
2023-01-03T04:32:18.598Z,21.77
2023-01-03T04:34:45.861Z,19.83
2023-01-03T04:37:12.954Z,20.85
2023-01-03T04:39:39.784Z,20.15
2023-01-03T04:42:26.984Z,22.13
2023-01-03T04:44:53.910Z,22.83
2023-01-03T04:47:20.867Z,22.23
2023-01-03T04:49:47.930Z,22.90
2023-01-03T04:52:15.953Z,21.17
2023-01-03T04:54:43.263Z,21.70
2023-01-03T04:57:10.832Z,22.05
2023-01-03T04:59:38.824Z,20.27
2023-01-03T05:02:05.653Z,23.15
2023-01-03T05:04:32.784Z,19.15
2023-01-03T05:06:59.921Z,21.63
2023-01-03T05:09:27.461Z,24.15
2023-01-03T05:11:54.650Z,26.33
2023-01-03T05:14:21.360Z,27.20
2023-01-03T05:16:48.179Z,22.90
2023-01-03T05:19:15.173Z,22.63
2023-01-03T05:22:00.403Z,19.88
2023-01-03T05:24:45.994Z,19.73
2023-01-03T05:27:12.844Z,18.83
2023-01-03T05:29:39.819Z,21.35
2023-01-03T05:32:06.599Z,22.08
2023-01-03T05:34:33.313Z,21.48
2023-01-03T05:37:00.029Z,21.15
2023-01-03T05:39:26.959Z,20.60
2023-01-03T05:41:59.615Z,19.80
2023-01-03T05:44:34.057Z,19.52
2023-01-03T05:47:02.848Z,19.40
2023-01-03T05:49:29.690Z,20.70
2023-01-03T05:51:56.633Z,19.67
2023-01-03T05:54:23.402Z,20.85
2023-01-03T05:56:51.315Z,19.48
2023-01-03T05:59:19.537Z,20.08
2023-01-03T06:01:46.333Z,21.13
2023-01-03T06:04:13.371Z,21.02
2023-01-03T06:06:40.353Z,20.17
2023-01-03T06:09:07.231Z,21.13
2023-01-03T06:11:34.057Z,19.52
2023-01-03T06:14:00.905Z,18.90
2023-01-03T06:16:46.164Z,20.45
2023-01-03T06:19:13.075Z,20.08
2023-01-03T06:21:41.704Z,21.35
2023-01-03T06:24:09.624Z,20.50
2023-01-03T06:26:36.961Z,23.38
2023-01-03T06:29:05.353Z,23.02
2023-01-03T06:31:32.552Z,21.02
2023-01-03T06:33:59.967Z,21.40
2023-01-03T06:36:27.179Z,23.25
2023-01-03T06:39:03.690Z,24.83
2023-01-03T06:41:36.162Z,22.48
2023-01-03T06:44:09.420Z,22.85
2023-01-03T06:46:55.832Z,21.52
2023-01-03T06:49:41.547Z,20.45
2023-01-03T06:52:36.239Z,20.45
2023-01-03T06:55:03.649Z,21.08
2023-01-03T06:57:30.428Z,21.77
2023-01-03T06:59:57.243Z,18.77
2023-01-03T07:02:25.219Z,20.75
2023-01-03T07:04:52.065Z,22.45
2023-01-03T07:07:18.907Z,21.92
2023-01-03T07:09:45.797Z,23.58
2023-01-03T07:12:39.829Z,22.38
2023-01-03T07:15:07.107Z,24.33
2023-01-03T07:17:33.892Z,21.60
2023-01-03T07:20:04.588Z,21.73
2023-01-03T07:22:31.437Z,19.63
2023-01-03T07:24:58.237Z,21.52
2023-01-03T07:27:25.009Z,20.45
2023-01-03T07:30:00.445Z,20.88
2023-01-03T07:32:27.313Z,24.15
2023-01-03T07:34:54.022Z,24.52
2023-01-03T07:37:20.784Z,25.65
2023-01-03T07:39:47.836Z,24.33
2023-01-03T07:42:33.019Z,26.80
2023-01-03T07:45:00.063Z,26.33
2023-01-03T07:47:26.772Z,28.02
2023-01-03T07:49:54.903Z,24.27
2023-01-03T07:52:21.709Z,24.80
2023-01-03T07:54:52.442Z,26.42
2023-01-03T07:57:19.849Z,25.95
2023-01-03T07:59:48.273Z,24.38
2023-01-03T08:02:15.213Z,25.52
2023-01-03T08:04:42.082Z,27.70
2023-01-03T08:10:16.189Z,26.52
2023-01-03T08:13:02.004Z,31.70
2023-01-03T08:15:28.675Z,27.83
2023-01-03T08:17:55.363Z,25.95
2023-01-03T08:20:22.217Z,26.35
2023-01-03T08:22:49.284Z,25.83
2023-01-03T08:25:16.106Z,23.50
2023-01-03T08:27:48.196Z,24.10
2023-01-03T08:30:17.003Z,23.58
2023-01-03T08:32:43.865Z,26.23
2023-01-03T08:35:11.433Z,24.55
2023-01-03T08:37:38.453Z,21.85
2023-01-03T08:40:06.046Z,22.95
2023-01-03T08:42:34.031Z,24.50
2023-01-03T08:45:08.903Z,22.60
2023-01-03T08:47:36.085Z,22.83
2023-01-03T08:50:04.183Z,20.27
2023-01-03T08:52:35.050Z,21.80
2023-01-03T08:55:02.929Z,25.67
2023-01-03T08:57:29.918Z,20.80
2023-01-03T08:59:56.783Z,21.88
2023-01-03T09:02:23.859Z,27.48
2023-01-03T09:04:51.220Z,29.40
2023-01-03T09:07:18.161Z,26.05
2023-01-03T09:09:45.038Z,37.03
2023-01-03T09:12:11.876Z,27.42
2023-01-03T09:14:38.773Z,27.27
2023-01-03T09:17:08.538Z,28.13
2023-01-03T09:19:37.449Z,26.77
2023-01-03T09:22:04.283Z,29.50
2023-01-03T09:24:31.162Z,30.48
2023-01-03T09:26:58.090Z,29.15
2023-01-03T09:29:25.125Z,28.35
2023-01-03T09:31:52.315Z,31.48
2023-01-03T09:34:19.662Z,30.00
2023-01-03T09:36:46.544Z,27.40
2023-01-03T09:39:14.427Z,32.90
2023-01-03T09:41:41.971Z,32.28
2023-01-03T09:44:10.327Z,32.83
2023-01-03T09:46:37.909Z,32.38
2023-01-03T09:49:07.429Z,32.13
2023-01-03T09:51:59.938Z,29.65
2023-01-03T09:54:55.845Z,28.83
2023-01-03T09:57:50.690Z,30.48
2023-01-03T10:00:57.496Z,29.85
2023-01-03T10:03:48.364Z,32.00
2023-01-03T10:06:23.778Z,30.33
2023-01-03T10:09:09.616Z,33.15
2023-01-03T10:11:36.404Z,33.58
2023-01-03T10:14:30.231Z,36.15
2023-01-03T10:17:01.825Z,34.97
2023-01-03T10:19:43.979Z,35.30
2023-01-03T10:22:27.051Z,34.58
2023-01-03T10:24:59.317Z,37.47
2023-01-03T10:27:33.608Z,36.15
2023-01-03T10:30:02.693Z,37.03
2023-01-03T10:32:38.390Z,39.22
2023-01-03T10:35:23.565Z,38.03
2023-01-03T10:37:55.149Z,40.90
2023-01-03T10:40:35.483Z,43.88
2023-01-03T10:43:28.927Z,44.95
2023-01-03T10:45:57.583Z,44.35
2023-01-03T10:48:26.302Z,47.60
2023-01-03T10:50:54.052Z,43.67
2023-01-03T10:53:23.119Z,48.40
2023-01-03T10:55:54.400Z,51.53
2023-01-03T10:58:32.146Z,53.33
2023-01-03T11:01:21.105Z,47.38
2023-01-03T11:04:09.956Z,47.63
2023-01-03T11:06:37.070Z,44.33
2023-01-03T11:09:10.761Z,44.83
2023-01-03T11:11:41.668Z,45.60
2023-01-03T11:14:20.407Z,45.10
2023-01-03T11:17:03.937Z,45.85
2023-01-03T11:19:33.028Z,45.10
2023-01-03T11:22:03.007Z,44.72
2023-01-03T11:24:49.463Z,45.95
2023-01-03T11:27:52.145Z,41.33
2023-01-03T11:30:22.138Z,40.30
2023-01-03T11:33:04.013Z,40.17
2023-01-03T11:35:36.950Z,39.35
2023-01-03T11:38:31.343Z,38.30
2023-01-03T11:41:14.118Z,36.70
2023-01-03T11:43:58.971Z,40.00
2023-01-03T11:46:34.900Z,43.58
2023-01-03T11:49:25.781Z,43.33
2023-01-03T11:52:01.736Z,43.90
2023-01-03T11:55:03.806Z,42.55
2023-01-03T11:57:59.861Z,37.78
2023-01-03T12:00:31.694Z,36.97
2023-01-03T12:03:09.723Z,33.20
2023-01-03T12:06:08.426Z,31.60
2023-01-03T12:08:56.231Z,33.42
2023-01-03T12:11:25.534Z,32.75
2023-01-03T12:14:06.952Z,31.30
2023-01-03T12:16:40.774Z,31.85
2023-01-03T12:19:37.276Z,29.23
2023-01-03T12:22:22.666Z,30.65
2023-01-03T12:25:04.404Z,32.10
2023-01-03T12:27:44.645Z,31.65
2023-01-03T12:30:45.616Z,31.88
2023-01-03T12:33:39.042Z,31.13
2023-01-03T12:36:27.717Z,29.13
2023-01-03T12:39:08.082Z,28.77
2023-01-03T12:41:43.049Z,29.75
2023-01-03T12:44:22.492Z,29.08
2023-01-03T12:46:53.124Z,28.60
2023-01-03T12:49:52.377Z,26.52
2023-01-03T12:52:22.713Z,26.27
2023-01-03T12:55:25.028Z,27.05
2023-01-03T12:58:13.326Z,26.10
2023-01-03T13:00:52.945Z,27.45
2023-01-03T13:03:25.709Z,26.45
2023-01-03T13:06:01.065Z,25.42
2023-01-03T13:08:34.522Z,24.40
2023-01-03T13:11:18.487Z,26.10
2023-01-03T13:13:57.565Z,23.33
2023-01-03T13:16:36.593Z,23.55
2023-01-03T13:19:21.890Z,23.83
2023-01-03T13:21:54.787Z,23.83
2023-01-03T13:24:39.956Z,23.30
2023-01-03T13:27:37.548Z,23.38
2023-01-03T13:30:19.929Z,24.40
2023-01-03T13:32:50.217Z,24.13
2023-01-03T13:35:16.840Z,24.05
2023-01-03T13:37:51.551Z,24.45
2023-01-03T13:41:07.455Z,26.35
2023-01-03T13:43:32.347Z,25.05
2023-01-03T13:46:20.568Z,26.70
2023-01-03T13:49:05.753Z,26.63
2023-01-03T13:51:50.067Z,25.83
2023-01-03T13:54:16.856Z,27.23
2023-01-03T13:56:57.560Z,28.17
2023-01-03T13:59:58.932Z,30.75
2023-01-03T14:02:44.856Z,32.28
2023-01-03T14:05:30.146Z,32.70
2023-01-03T14:08:21.265Z,32.85
2023-01-03T14:10:54.152Z,30.92
2023-01-03T14:13:53.401Z,30.73
2023-01-03T14:16:41.708Z,29.95
2023-01-03T14:19:37.036Z,28.77
2023-01-03T14:22:31.502Z,28.35
2023-01-03T14:24:59.355Z,26.30
2023-01-03T14:27:46.810Z,24.63
2023-01-03T14:30:26.545Z,23.98
2023-01-03T14:32:53.741Z,21.52
2023-01-03T14:35:39.209Z,22.15
2023-01-03T14:38:07.515Z,22.40
2023-01-03T14:40:34.919Z,23.08
2023-01-03T14:43:05.542Z,29.60
2023-01-03T14:45:32.431Z,25.60
2023-01-03T14:48:00.502Z,25.70
2023-01-03T14:50:28.645Z,35.78
2023-01-03T14:52:59.783Z,34.60
2023-01-03T14:55:29.586Z,33.80
2023-01-03T14:57:57.695Z,37.08
2023-01-03T15:00:33.360Z,39.08
2023-01-03T15:03:02.531Z,39.55
2023-01-03T15:05:43.708Z,44.00
2023-01-03T15:08:34.756Z,49.70
2023-01-03T15:11:09.167Z,48.00
2023-01-03T15:14:14.576Z,39.63
2023-01-03T15:16:42.868Z,40.45
2023-01-03T15:19:22.624Z,40.67
2023-01-03T15:21:50.048Z,43.78
2023-01-03T15:24:22.061Z,41.03
2023-01-03T15:26:51.113Z,43.38
2023-01-03T15:29:47.582Z,41.33
2023-01-03T15:32:29.922Z,39.17
2023-01-03T15:34:59.879Z,40.25
2023-01-03T15:37:27.040Z,39.15
2023-01-03T15:39:56.918Z,37.20
2023-01-03T15:42:50.366Z,41.17
2023-01-03T15:45:39.588Z,38.42
2023-01-03T15:48:18.879Z,57.78
2023-01-03T15:50:53.360Z,49.42
2023-01-03T15:53:46.683Z,56.88
2023-01-03T15:56:23.103Z,51.17
2023-01-03T15:58:53.477Z,52.97
2023-01-03T16:01:25.155Z,53.42
2023-01-03T16:03:53.191Z,50.22
2023-01-03T16:06:20.537Z,41.00
2023-01-03T16:09:10.779Z,41.83
2023-01-03T16:11:41.096Z,30.80
2023-01-03T16:14:34.372Z,34.00
2023-01-03T16:17:02.718Z,41.40
2023-01-03T16:19:30.663Z,38.53
2023-01-03T16:22:33.850Z,37.10
2023-01-03T16:24:53.418Z,33.95
2023-01-03T16:27:25.444Z,36.42
2023-01-03T16:29:52.672Z,36.95
2023-01-03T16:32:34.568Z,26.75
2023-01-03T16:47:16.407Z,30.73
2023-01-03T16:49:45.296Z,31.13
2023-01-03T16:55:57.770Z,31.02
2023-01-03T16:58:39.089Z,29.90
2023-01-03T17:01:09.295Z,28.17
2023-01-03T17:04:15.895Z,26.20
2023-01-03T17:06:54.305Z,24.23
2023-01-03T17:17:27.884Z,24.70
2023-01-03T17:23:34.094Z,21.45
2023-01-03T17:26:03.659Z,27.98
2023-01-03T17:28:39.562Z,29.27
2023-01-03T17:31:06.766Z,31.75
2023-01-03T17:33:34.382Z,45.75
2023-01-03T17:36:05.542Z,43.42
2023-01-03T17:38:34.144Z,45.90
2023-01-03T17:41:03.932Z,57.38
2023-01-03T17:43:38.295Z,71.70
2023-01-03T17:46:34.591Z,70.32
2023-01-03T17:57:15.105Z,51.72
2023-01-03T17:59:42.207Z,45.03
2023-01-03T18:02:29.542Z,41.35
2023-01-03T18:05:21.378Z,27.42
2023-01-03T18:07:46.849Z,29.50
2023-01-03T18:10:23.377Z,24.92
2023-01-03T18:12:50.307Z,22.48
2023-01-03T18:15:19.554Z,19.48
2023-01-03T18:17:47.415Z,19.90
2023-01-03T18:20:17.622Z,14.07
2023-01-03T18:22:46.310Z,15.45
2023-01-03T18:25:31.348Z,13.65
2023-01-03T18:28:02.907Z,17.38
2023-01-03T18:30:30.061Z,18.92
2023-01-03T18:32:57.740Z,20.55
2023-01-03T18:35:30.940Z,19.77
2023-01-03T18:37:59.855Z,18.67
2023-01-03T18:40:29.340Z,17.75
2023-01-03T18:43:09.478Z,18.55
2023-01-03T18:45:37.898Z,16.83
2023-01-03T18:48:05.544Z,17.20
2023-01-03T18:50:33.048Z,16.90
2023-01-03T18:53:04.411Z,14.68
2023-01-03T18:55:38.627Z,14.82
2023-01-03T18:58:23.762Z,16.58
2023-01-03T19:00:50.728Z,15.60
2023-01-03T19:03:24.130Z,23.15
2023-01-03T19:05:52.287Z,26.27
2023-01-03T19:08:20.769Z,14.63
2023-01-03T19:10:47.906Z,13.05
2023-01-03T19:13:30.491Z,15.88
2023-01-03T19:15:57.543Z,20.88
2023-01-03T19:18:24.304Z,25.95
2023-01-03T19:20:51.457Z,25.88
2023-01-03T19:23:28.221Z,24.85
2023-01-03T19:26:01.688Z,26.27
2023-01-03T19:28:29.253Z,28.92
2023-01-03T19:30:56.193Z,30.40
2023-01-03T19:33:23.586Z,31.75
2023-01-03T19:35:50.455Z,35.92
2023-01-03T19:38:17.343Z,38.05
2023-01-03T19:40:47.994Z,47.17
2023-01-03T19:43:22.715Z,44.70
2023-01-03T19:45:50.002Z,57.45
2023-01-03T19:48:22.865Z,60.15
2023-01-03T19:50:51.665Z,56.55
2023-01-03T19:53:18.966Z,55.10
2023-01-03T19:55:49.167Z,56.00
2023-01-03T19:58:18.938Z,51.58
2023-01-03T20:01:04.420Z,47.47
2023-01-03T20:03:57.713Z,47.78
2023-01-03T20:06:25.172Z,40.17
2023-01-03T20:08:54.034Z,41.20
2023-01-03T20:11:23.322Z,43.08
2023-01-03T20:13:50.317Z,41.10
2023-01-03T20:16:17.182Z,41.58
2023-01-03T20:18:44.520Z,39.65
2023-01-03T20:21:27.011Z,40.72
2023-01-03T20:24:01.965Z,45.17
2023-01-03T20:26:32.193Z,53.47
2023-01-03T20:29:00.358Z,47.45
2023-01-03T20:31:30.567Z,46.13
2023-01-03T20:34:00.275Z,37.95
2023-01-03T20:36:38.078Z,36.53
2023-01-03T20:39:21.709Z,34.15
2023-01-03T20:42:03.269Z,28.42
2023-01-03T20:44:30.791Z,24.88
2023-01-03T20:46:57.765Z,25.80
2023-01-03T20:49:29.196Z,22.48
2023-01-03T20:51:56.028Z,25.25
2023-01-03T20:54:22.877Z,25.65
2023-01-03T20:56:49.948Z,25.60
2023-01-03T20:59:19.022Z,28.40
2023-01-03T21:01:47.884Z,18.52
2023-01-03T21:04:17.990Z,19.55
2023-01-03T21:06:45.744Z,20.58
2023-01-03T21:09:14.288Z,20.02
2023-01-03T21:11:41.196Z,17.73
2023-01-03T21:14:09.678Z,17.85
2023-01-03T21:16:45.364Z,16.38
2023-01-03T21:19:17.364Z,20.65
2023-01-03T21:21:46.982Z,16.02
2023-01-03T21:24:15.537Z,17.02
2023-01-03T21:26:42.946Z,15.80
2023-01-03T21:29:10.450Z,17.40
2023-01-03T21:31:38.651Z,19.63
2023-01-03T21:34:07.118Z,21.23
2023-01-03T21:36:38.349Z,23.13
2023-01-03T21:39:05.705Z,28.80
2023-01-03T21:41:35.595Z,29.25
2023-01-03T21:44:04.046Z,34.42
2023-01-03T21:46:33.194Z,38.33
2023-01-03T21:49:01.543Z,48.10
2023-01-03T21:51:39.187Z,36.25
2023-01-03T21:54:12.358Z,41.50
2023-01-03T21:56:46.294Z,40.42
2023-01-03T21:59:15.105Z,40.22
2023-01-03T22:02:05.802Z,40.15
2023-01-03T22:04:33.437Z,40.58
2023-01-03T22:07:03.123Z,38.20
2023-01-03T22:09:50.553Z,43.50
2023-01-03T22:12:29.145Z,40.60
2023-01-03T22:14:56.202Z,33.22
2023-01-03T22:17:22.903Z,31.55
2023-01-03T22:19:50.752Z,37.58
2023-01-03T22:22:17.670Z,43.45
2023-01-03T22:24:44.910Z,40.30
2023-01-03T22:27:11.690Z,40.15
2023-01-03T22:29:38.537Z,39.80
2023-01-03T22:32:09.838Z,34.83
2023-01-03T22:34:40.792Z,41.65
2023-01-03T22:37:07.637Z,38.65
2023-01-03T22:39:34.645Z,40.08
2023-01-03T22:42:01.431Z,37.63
2023-01-03T22:44:28.299Z,36.65
2023-01-03T22:46:55.010Z,37.42
2023-01-03T22:49:21.892Z,26.38
2023-01-03T22:51:48.620Z,25.00
2023-01-03T22:54:21.894Z,29.10
2023-01-03T22:56:48.685Z,29.15
2023-01-03T22:59:16.092Z,31.60
2023-01-03T23:01:43.157Z,30.38
2023-01-03T23:04:10.392Z,28.27
2023-01-03T23:06:37.332Z,27.90
2023-01-03T23:09:04.381Z,28.48
2023-01-03T23:11:52.259Z,30.40
2023-01-03T23:14:21.115Z,30.13
2023-01-03T23:16:49.038Z,28.98
2023-01-03T23:19:22.268Z,30.05
2023-01-03T23:21:49.278Z,29.45
2023-01-03T23:24:22.644Z,28.25
2023-01-03T23:26:51.821Z,28.48
2023-01-03T23:29:18.829Z,29.77
2023-01-03T23:31:46.022Z,29.65
2023-01-03T23:34:13.395Z,29.48
2023-01-03T23:36:43.482Z,28.63
2023-01-03T23:39:15.507Z,30.98
2023-01-03T23:41:42.615Z,31.30
2023-01-03T23:44:09.884Z,28.83
2023-01-03T23:46:36.797Z,29.73
2023-01-03T23:49:04.267Z,24.48
2023-01-03T23:51:31.031Z,26.50
2023-01-03T23:53:58.345Z,29.75
2023-01-03T23:56:28.889Z,31.38
2023-01-03T23:58:56.069Z,29.77
